首页
METAR-TAF:

METAR-TAF

机场 :

Mason City Municipal Airport

麦逊城, 艾奥瓦州, 美国

纬度: 43-09-28N, 经度: 093-19-53W, 海拔: 370米

当前天气观测

该预报发布于37分钟前的13:53 UTC
风速10节,风向西
温度 19°C
湿度 78%
气压 1009 hPa
能見度: 16.1公里
天空无云

METAR: KMCW 251353Z AUTO 27010KT 10SM CLR 19/15 A2980 RMK AO2 SLP080 T01940150

时间: 09:30 (14:30 UTC)

预报

该预报发布于1小时和23分钟前的13:07 UTC
预报有效从25日的 13点(UTC)到 26日的 12点(UTC)
风速11节,风向西
能見度: 10公里
多云层高于12000英尺
从 25日的 1800点(UTC)
风速8节,风向西,有时为16节阵风
能見度: 10公里
少量云层高于25000英尺
从 26日的 0200点(UTC)
风速3节,风向多变
能見度: 10公里
天空无云

TAF: KMCW 251307Z 2513/2612 26011KT P6SM BKN120 FM251800 28008G16KT P6SM FEW250 FM260200 VRB03KT P6SM SKC

超过4000个机场的气象观测和天气预报(METAR&TAF报告)。

可查询的气象台以黄色和红色小点在地图上表示。

将鼠标移到小点上方,可查看气象台名称。

然后点击查看天气观测和预报。

如需切换地图:点击带黑十字的绿色按钮放大地图;点击带横线的绿色按钮缩小地图;或者点击绿色箭头查看邻近地区的地图。


METAR-TAF: